createdAt,value
2023-01-12T00:00:34.255Z,7.61
2023-01-12T00:01:34.206Z,7.58
2023-01-12T00:02:34.302Z,7.59
2023-01-12T00:03:34.176Z,7.56
2023-01-12T00:04:34.231Z,7.61
2023-01-12T00:05:34.160Z,7.62
2023-01-12T00:06:34.156Z,7.62
2023-01-12T00:07:34.170Z,7.62
2023-01-12T00:08:34.137Z,7.62
2023-01-12T00:09:34.124Z,7.61
2023-01-12T00:10:34.112Z,7.62
2023-01-12T00:11:34.084Z,7.69
2023-01-12T00:12:34.122Z,7.66
2023-01-12T00:13:34.798Z,7.64
2023-01-12T00:14:34.068Z,7.69
2023-01-12T00:15:34.047Z,7.69
2023-01-12T00:16:34.053Z,7.67
2023-01-12T00:17:34.057Z,7.67
2023-01-12T00:18:34.024Z,7.70
2023-01-12T00:19:34.004Z,7.72
2023-01-12T00:20:34.011Z,7.70
2023-01-12T00:21:33.982Z,7.64
2023-01-12T00:22:34.005Z,7.62
2023-01-12T00:23:33.954Z,7.59
2023-01-12T00:24:33.950Z,7.61
2023-01-12T00:25:34.670Z,7.56
2023-01-12T00:26:33.933Z,7.58
2023-01-12T00:27:33.941Z,7.62
2023-01-12T00:28:33.917Z,7.62
2023-01-12T00:29:33.891Z,7.59
2023-01-12T00:30:33.893Z,7.56
2023-01-12T00:31:33.931Z,7.56
2023-01-12T00:32:33.897Z,7.56
2023-01-12T00:33:33.842Z,7.55
2023-01-12T00:34:33.877Z,7.53
2023-01-12T00:35:33.861Z,7.53
2023-01-12T00:36:33.827Z,7.53
2023-01-12T00:37:33.838Z,7.56
2023-01-12T00:38:33.803Z,7.58
2023-01-12T00:39:33.781Z,7.59
2023-01-12T00:40:33.775Z,7.56
2023-01-12T00:41:33.991Z,7.56
2023-01-12T00:42:33.788Z,7.61
2023-01-12T00:43:33.968Z,7.58
2023-01-12T00:44:33.743Z,7.56
2023-01-12T00:45:33.714Z,7.53
2023-01-12T00:46:33.707Z,7.48
2023-01-12T00:47:33.747Z,7.44
2023-01-12T00:48:33.692Z,7.41
2023-01-12T00:49:33.696Z,7.41
2023-01-12T00:50:33.662Z,7.47
2023-01-12T00:51:33.643Z,7.43
2023-01-12T00:52:33.681Z,7.43
2023-01-12T00:53:33.635Z,7.41
2023-01-12T00:54:33.625Z,7.40
2023-01-12T00:55:33.605Z,7.39
2023-01-12T00:56:33.601Z,7.37
2023-01-12T00:57:33.624Z,7.36
2023-01-12T00:58:33.581Z,7.36
2023-01-12T00:59:33.558Z,7.36
2023-01-12T01:00:33.571Z,7.37
2023-01-12T01:01:33.644Z,7.40
2023-01-12T01:02:33.590Z,7.39
2023-01-12T01:03:33.526Z,7.37
2023-01-12T01:04:33.513Z,7.36
2023-01-12T01:05:33.505Z,7.36
2023-01-12T01:06:33.488Z,7.36
2023-01-12T01:07:33.515Z,7.32
2023-01-12T01:08:33.464Z,7.33
2023-01-12T01:09:33.443Z,7.39
2023-01-12T01:10:33.440Z,7.41
2023-01-12T01:11:33.434Z,7.46
2023-01-12T01:12:33.452Z,7.48
2023-01-12T01:13:33.399Z,7.51
2023-01-12T01:14:33.404Z,7.51
2023-01-12T01:15:33.500Z,7.51
2023-01-12T01:16:33.377Z,7.51
2023-01-12T01:17:33.407Z,7.53
2023-01-12T01:18:33.351Z,7.56
2023-01-12T01:19:33.336Z,7.59
2023-01-12T01:20:33.330Z,7.61
2023-01-12T01:21:33.308Z,7.62
2023-01-12T01:22:33.326Z,7.59
2023-01-12T01:23:33.321Z,7.61
2023-01-12T01:24:33.322Z,7.67
2023-01-12T01:25:33.264Z,7.62
2023-01-12T01:26:33.282Z,7.61
2023-01-12T01:27:33.247Z,7.53
2023-01-12T01:28:33.272Z,7.50
2023-01-12T01:29:33.260Z,7.48
2023-01-12T01:30:33.219Z,7.47
2023-01-12T01:31:33.220Z,7.48
2023-01-12T01:32:33.212Z,7.47
2023-01-12T01:33:33.213Z,7.51
2023-01-12T01:34:33.208Z,7.47
2023-01-12T01:35:33.295Z,7.53
2023-01-12T01:36:33.150Z,7.51
2023-01-12T01:37:33.136Z,7.50
2023-01-12T01:38:33.149Z,7.46
2023-01-12T01:39:33.139Z,7.48
2023-01-12T01:40:33.109Z,7.50
2023-01-12T01:41:33.105Z,7.55
2023-01-12T01:42:33.087Z,7.55
2023-01-12T01:43:33.066Z,7.59
2023-01-12T01:44:33.119Z,7.59
2023-01-12T01:45:33.042Z,7.61
2023-01-12T01:46:33.095Z,7.58
2023-01-12T01:47:33.268Z,7.58
2023-01-12T01:48:33.027Z,7.58
2023-01-12T01:49:33.003Z,7.50
2023-01-12T01:50:33.048Z,7.48
2023-01-12T01:51:32.982Z,7.48
2023-01-12T01:52:32.977Z,7.48
2023-01-12T01:53:32.957Z,7.53
2023-01-12T01:54:32.989Z,7.51
2023-01-12T01:55:32.961Z,7.51
2023-01-12T01:56:32.933Z,7.56
2023-01-12T01:57:32.933Z,7.56
2023-01-12T01:58:32.910Z,7.58
2023-01-12T01:59:32.918Z,7.58
2023-01-12T02:00:32.904Z,7.55
2023-01-12T02:01:32.987Z,7.51
2023-01-12T02:02:32.898Z,7.50
2023-01-12T02:03:36.539Z,7.47
2023-01-12T02:04:32.886Z,7.50
2023-01-12T02:05:32.882Z,7.51
2023-01-12T02:06:32.834Z,7.51
2023-01-12T02:07:32.792Z,7.51
2023-01-12T02:08:32.814Z,7.53
2023-01-12T02:09:33.035Z,7.50
2023-01-12T02:10:32.798Z,7.44
2023-01-12T02:11:32.764Z,7.41
2023-01-12T02:12:32.747Z,7.43
2023-01-12T02:13:32.752Z,7.41
2023-01-12T02:14:32.717Z,7.37
2023-01-12T02:15:32.759Z,7.36
2023-01-12T02:16:32.702Z,7.37
2023-01-12T02:17:32.704Z,7.41
2023-01-12T02:18:32.679Z,7.41
2023-01-12T02:19:32.679Z,7.39
2023-01-12T02:20:32.682Z,7.39
2023-01-12T02:21:32.660Z,7.33
2023-01-12T02:22:32.664Z,7.39
2023-01-12T02:23:32.639Z,7.37
2023-01-12T02:24:32.618Z,7.32
2023-01-12T02:25:32.612Z,7.29
2023-01-12T02:26:32.616Z,7.28
2023-01-12T02:27:32.626Z,7.25
2023-01-12T02:28:32.565Z,7.23
2023-01-12T02:29:32.580Z,7.25
2023-01-12T02:30:32.609Z,7.26
2023-01-12T02:31:32.616Z,7.28
2023-01-12T02:32:32.571Z,7.26
2023-01-12T02:33:32.520Z,7.26
2023-01-12T02:34:32.504Z,7.25
2023-01-12T02:35:32.506Z,7.23
2023-01-12T02:36:32.504Z,7.22
2023-01-12T02:37:32.474Z,7.25
2023-01-12T02:38:32.455Z,7.23
2023-01-12T02:39:32.465Z,7.23
2023-01-12T02:40:32.463Z,7.25
2023-01-12T02:41:32.429Z,7.29
2023-01-12T02:42:32.407Z,7.32
2023-01-12T02:43:32.416Z,7.44
2023-01-12T02:44:32.383Z,7.44
2023-01-12T02:45:32.421Z,7.44
2023-01-12T02:46:32.490Z,7.47
2023-01-12T02:47:32.369Z,7.43
2023-01-12T02:48:32.348Z,7.41
2023-01-12T02:49:32.344Z,7.41
2023-01-12T02:50:32.328Z,7.40
2023-01-12T02:51:32.364Z,7.40
2023-01-12T02:52:32.348Z,7.40
2023-01-12T02:53:32.302Z,7.41
2023-01-12T02:54:32.275Z,7.44
2023-01-12T02:55:32.279Z,7.46
2023-01-12T02:56:32.301Z,7.48
2023-01-12T02:57:32.341Z,7.47
2023-01-12T02:58:32.224Z,7.44
2023-01-12T02:59:32.249Z,7.46
2023-01-12T03:00:32.221Z,7.46
2023-01-12T03:01:32.250Z,7.44
2023-01-12T03:02:32.222Z,7.46
2023-01-12T03:03:32.187Z,7.44
2023-01-12T03:04:32.159Z,7.43
2023-01-12T03:05:32.167Z,7.44
2023-01-12T03:06:32.140Z,7.43
2023-01-12T03:07:32.181Z,7.44
2023-01-12T03:08:32.120Z,7.48
2023-01-12T03:09:32.128Z,7.47
2023-01-12T03:10:32.105Z,7.47
2023-01-12T03:11:32.105Z,7.50
2023-01-12T03:12:32.111Z,7.59
2023-01-12T03:13:32.094Z,7.64
2023-01-12T03:14:32.048Z,7.64
2023-01-12T03:15:32.051Z,7.64
2023-01-12T03:16:32.132Z,7.61
2023-01-12T03:17:32.053Z,7.59
2023-01-12T03:18:32.037Z,7.56
2023-01-12T03:19:32.008Z,7.56
2023-01-12T03:20:31.987Z,7.56
2023-01-12T03:21:31.983Z,7.56
2023-01-12T03:22:31.999Z,7.55
2023-01-12T03:23:31.994Z,7.51
2023-01-12T03:24:31.936Z,7.53
2023-01-12T03:25:31.951Z,7.53
2023-01-12T03:26:31.924Z,7.55
2023-01-12T03:27:31.956Z,7.56
2023-01-12T03:28:31.899Z,7.56
2023-01-12T03:29:31.896Z,7.56
2023-01-12T03:30:31.888Z,7.56
2023-01-12T03:31:31.892Z,7.58
2023-01-12T03:32:31.925Z,7.61
2023-01-12T03:33:31.928Z,7.62
2023-01-12T03:34:31.827Z,7.64
2023-01-12T03:35:31.838Z,7.66
2023-01-12T03:36:31.810Z,7.66
2023-01-12T03:37:31.813Z,7.69
2023-01-12T03:38:31.816Z,7.72
2023-01-12T03:39:31.784Z,7.77
2023-01-12T03:40:31.769Z,7.77
2023-01-12T03:41:31.761Z,7.74
2023-01-12T03:42:31.778Z,7.72
2023-01-12T03:43:31.779Z,7.74
2023-01-12T03:44:31.721Z,7.72
2023-01-12T03:45:31.731Z,7.72
2023-01-12T03:46:31.744Z,7.70
2023-01-12T03:47:31.699Z,7.70
2023-01-12T03:48:32.276Z,7.70
2023-01-12T03:49:31.677Z,7.70
2023-01-12T03:50:31.649Z,7.72
2023-01-12T03:51:31.659Z,7.72
2023-01-12T03:52:31.632Z,7.74
2023-01-12T03:53:31.906Z,7.72
2023-01-12T03:54:31.610Z,7.72
2023-01-12T03:55:31.636Z,7.72
2023-01-12T03:56:31.581Z,7.70
2023-01-12T03:57:31.587Z,7.72
2023-01-12T03:58:31.567Z,7.72
2023-01-12T03:59:31.566Z,7.72
2023-01-12T04:00:31.573Z,7.72
2023-01-12T04:01:31.621Z,7.72
2023-01-12T04:02:31.522Z,7.70
2023-01-12T04:03:31.581Z,7.70
2023-01-12T04:04:31.524Z,7.72
2023-01-12T04:05:31.493Z,7.75
2023-01-12T04:06:31.481Z,7.77
2023-01-12T04:07:31.476Z,7.77
2023-01-12T04:08:31.450Z,7.77
2023-01-12T04:09:31.485Z,7.77
2023-01-12T04:10:31.434Z,7.80
2023-01-12T04:11:31.508Z,7.80
2023-01-12T04:12:31.415Z,7.77
2023-01-12T04:13:31.443Z,7.78
2023-01-12T04:14:31.392Z,7.77
2023-01-12T04:15:31.392Z,7.78
2023-01-12T04:16:31.483Z,7.78
2023-01-12T04:17:31.364Z,7.78
2023-01-12T04:18:31.377Z,7.78
2023-01-12T04:19:31.343Z,7.78
2023-01-12T04:20:31.353Z,7.80
2023-01-12T04:21:31.322Z,7.81
2023-01-12T04:22:31.294Z,7.81
2023-01-12T04:23:31.291Z,7.78
2023-01-12T04:24:31.269Z,7.81
2023-01-12T04:25:31.312Z,7.80
2023-01-12T04:26:31.257Z,7.80
2023-01-12T04:27:31.245Z,7.81
2023-01-12T04:28:31.269Z,7.80
2023-01-12T04:29:31.236Z,7.83
2023-01-12T04:30:31.201Z,7.81
2023-01-12T04:31:31.232Z,7.83
2023-01-12T04:32:31.270Z,7.81
2023-01-12T04:33:31.186Z,7.83
2023-01-12T04:34:31.157Z,7.83
2023-01-12T04:35:31.169Z,7.83
2023-01-12T04:36:31.135Z,7.83
2023-01-12T04:37:31.180Z,7.83
2023-01-12T04:38:31.116Z,7.83
2023-01-12T04:39:31.120Z,7.83
2023-01-12T04:40:31.347Z,7.83
2023-01-12T04:41:31.101Z,7.84
2023-01-12T04:42:31.104Z,7.84
2023-01-12T04:43:31.073Z,7.85
2023-01-12T04:44:31.047Z,7.85
2023-01-12T04:45:31.160Z,7.85
2023-01-12T04:46:31.057Z,7.85
2023-01-12T04:47:31.025Z,7.87
2023-01-12T04:48:31.085Z,7.85
2023-01-12T04:49:31.004Z,7.85
2023-01-12T04:50:30.987Z,7.85
2023-01-12T04:51:30.977Z,7.87
2023-01-12T04:52:30.992Z,7.88
2023-01-12T04:53:31.020Z,7.88
2023-01-12T04:54:30.937Z,7.88
2023-01-12T04:55:30.947Z,7.87
2023-01-12T04:56:30.955Z,7.87
2023-01-12T04:57:30.913Z,7.88
2023-01-12T04:58:30.898Z,7.91
2023-01-12T04:59:30.890Z,7.90
2023-01-12T05:00:30.898Z,7.90
2023-01-12T05:01:31.077Z,7.90
2023-01-12T05:02:30.840Z,7.90
2023-01-12T05:03:30.855Z,7.91
2023-01-12T05:04:30.855Z,7.93
2023-01-12T05:05:30.832Z,7.96
2023-01-12T05:06:30.799Z,7.98
2023-01-12T05:07:30.838Z,7.98
2023-01-12T05:08:31.761Z,7.96
2023-01-12T05:09:30.789Z,7.96
2023-01-12T05:10:30.755Z,7.98
2023-01-12T05:11:30.766Z,7.98
2023-01-12T05:12:30.773Z,7.96
2023-01-12T05:13:30.754Z,7.96
2023-01-12T05:14:30.742Z,7.98
2023-01-12T05:15:30.714Z,7.99
2023-01-12T05:16:30.721Z,7.98
2023-01-12T05:17:30.724Z,7.99
2023-01-12T05:18:30.664Z,8.02
2023-01-12T05:19:30.733Z,8.02
2023-01-12T05:20:30.656Z,8.02
2023-01-12T05:21:30.669Z,8.03
2023-01-12T05:22:30.625Z,8.02
2023-01-12T05:23:30.627Z,8.02
2023-01-12T05:24:30.637Z,8.01
2023-01-12T05:25:30.597Z,8.02
2023-01-12T05:26:30.578Z,8.02
2023-01-12T05:27:30.590Z,8.01
2023-01-12T05:28:30.550Z,8.02
2023-01-12T05:29:30.582Z,8.02
2023-01-12T05:30:31.950Z,8.03
2023-01-12T05:31:30.534Z,8.05
2023-01-12T05:32:30.531Z,8.05
2023-01-12T05:33:30.543Z,8.05
2023-01-12T05:34:30.482Z,8.03
2023-01-12T05:35:30.494Z,8.05
2023-01-12T05:36:30.507Z,8.08
2023-01-12T05:37:30.493Z,8.09
2023-01-12T05:38:30.473Z,8.09
2023-01-12T05:39:30.453Z,8.09
2023-01-12T05:40:30.453Z,8.08
2023-01-12T05:41:30.422Z,8.09
2023-01-12T05:42:30.403Z,8.08
2023-01-12T05:43:30.434Z,8.09
2023-01-12T05:44:30.374Z,8.09
2023-01-12T05:45:30.373Z,8.13
2023-01-12T05:46:30.348Z,8.14
2023-01-12T05:47:30.358Z,8.16
2023-01-12T05:48:30.370Z,8.17
2023-01-12T05:49:30.325Z,8.17
2023-01-12T05:50:30.300Z,8.17
2023-01-12T05:51:30.345Z,8.16
2023-01-12T05:52:30.296Z,8.17
2023-01-12T05:53:30.285Z,8.18
2023-01-12T05:54:30.261Z,8.21
2023-01-12T05:55:30.259Z,8.23
2023-01-12T05:56:30.283Z,8.24
2023-01-12T05:57:30.236Z,8.23
2023-01-12T05:58:30.242Z,8.24
2023-01-12T05:59:30.218Z,8.24
2023-01-12T06:00:30.197Z,8.26
2023-01-12T06:01:30.308Z,8.26
2023-01-12T06:02:30.230Z,8.26
2023-01-12T06:03:30.220Z,8.24
2023-01-12T06:04:30.162Z,8.24
2023-01-12T06:05:30.146Z,8.23
2023-01-12T06:06:30.151Z,8.21
2023-01-12T06:07:30.130Z,8.21
2023-01-12T06:08:30.103Z,8.20
2023-01-12T06:09:30.094Z,8.20
2023-01-12T06:10:30.103Z,8.21
2023-01-12T06:11:30.095Z,8.21
2023-01-12T06:12:30.074Z,8.20
2023-01-12T06:13:30.046Z,8.20
2023-01-12T06:14:30.058Z,8.20
2023-01-12T06:15:30.060Z,8.21
2023-01-12T06:16:30.034Z,8.20
2023-01-12T06:17:30.038Z,8.18
2023-01-12T06:18:30.010Z,8.20
2023-01-12T06:19:29.979Z,8.20
2023-01-12T06:20:29.981Z,8.20
2023-01-12T06:21:29.961Z,8.18
2023-01-12T06:22:29.994Z,8.20
2023-01-12T06:23:35.680Z,8.18
2023-01-12T06:24:29.950Z,8.18
2023-01-12T06:25:29.940Z,8.18
2023-01-12T06:26:29.955Z,8.18
2023-01-12T06:27:29.894Z,8.20
2023-01-12T06:28:29.891Z,8.18
2023-01-12T06:29:36.186Z,8.17
2023-01-12T06:30:36.215Z,8.16
2023-01-12T06:31:35.869Z,8.16
2023-01-12T06:32:31.596Z,8.16
2023-01-12T06:33:29.825Z,8.17
2023-01-12T06:34:29.827Z,8.17
2023-01-12T06:35:29.805Z,8.17
2023-01-12T06:36:29.852Z,8.16
2023-01-12T06:37:29.788Z,8.16
2023-01-12T06:38:29.786Z,8.16
2023-01-12T06:39:29.807Z,8.17
2023-01-12T06:40:29.757Z,8.16
2023-01-12T06:41:29.788Z,8.14
2023-01-12T06:42:29.751Z,8.16
2023-01-12T06:43:29.713Z,8.18
2023-01-12T06:44:29.721Z,8.18
2023-01-12T06:45:29.724Z,8.17
2023-01-12T06:46:29.760Z,8.18
2023-01-12T06:47:29.666Z,8.18
2023-01-12T06:48:39.112Z,8.17
2023-01-12T06:49:29.650Z,8.17
2023-01-12T06:50:29.651Z,8.18
2023-01-12T06:51:29.667Z,8.17
2023-01-12T06:52:29.627Z,8.18
2023-01-12T06:53:29.603Z,8.23
2023-01-12T06:54:29.596Z,8.24
2023-01-12T06:55:29.607Z,8.24
2023-01-12T06:56:29.587Z,8.24
2023-01-12T06:57:29.614Z,8.27
2023-01-12T06:58:29.561Z,8.27
2023-01-12T06:59:29.558Z,8.27
2023-01-12T07:00:29.535Z,8.28
2023-01-12T07:01:29.633Z,8.31
2023-01-12T07:02:29.652Z,8.28
2023-01-12T07:03:29.494Z,8.31
2023-01-12T07:04:29.587Z,8.31
2023-01-12T07:05:29.526Z,8.28
2023-01-12T07:06:29.624Z,8.28
2023-01-12T07:07:29.448Z,8.31
2023-01-12T07:08:29.455Z,8.34
2023-01-12T07:09:29.429Z,8.36
2023-01-12T07:10:29.464Z,8.36
2023-01-12T07:11:29.425Z,8.35
2023-01-12T07:12:29.445Z,8.36
2023-01-12T07:13:29.387Z,8.36
2023-01-12T07:14:29.378Z,8.38
2023-01-12T07:15:29.366Z,8.38
2023-01-12T07:16:29.362Z,8.39
2023-01-12T07:17:29.363Z,8.36
2023-01-12T07:18:29.332Z,8.39
2023-01-12T07:19:29.313Z,8.42
2023-01-12T07:20:29.389Z,8.45
2023-01-12T07:21:29.285Z,8.42
2023-01-12T07:22:29.369Z,8.44
2023-01-12T07:23:29.266Z,8.44
2023-01-12T07:24:29.269Z,8.44
2023-01-12T07:25:29.244Z,8.44
2023-01-12T07:26:29.409Z,8.44
2023-01-12T07:27:29.217Z,8.42
2023-01-12T07:28:30.258Z,8.42
2023-01-12T07:29:29.462Z,8.42
2023-01-12T07:30:29.876Z,8.45
2023-01-12T07:31:29.551Z,8.46
2023-01-12T07:32:29.176Z,8.46
2023-01-12T07:33:29.867Z,8.45
2023-01-12T07:34:29.261Z,8.46
2023-01-12T07:35:29.699Z,8.46
2023-01-12T07:36:29.173Z,8.52
2023-01-12T07:37:29.379Z,8.52
2023-01-12T07:38:29.127Z,8.50
2023-01-12T07:39:29.146Z,8.53
2023-01-12T07:40:29.498Z,8.53
2023-01-12T07:41:29.070Z,8.54
2023-01-12T07:42:30.377Z,8.54
2023-01-12T07:43:29.181Z,8.54
2023-01-12T07:44:29.093Z,8.54
2023-01-12T07:45:29.022Z,8.54
2023-01-12T07:46:29.253Z,8.53
2023-01-12T07:47:28.991Z,8.56
2023-01-12T07:48:29.471Z,8.59
2023-01-12T07:49:29.265Z,8.59
2023-01-12T07:50:29.095Z,8.57
2023-01-12T07:51:29.016Z,8.59
2023-01-12T07:52:28.957Z,8.60
2023-01-12T07:53:29.001Z,8.60
2023-01-12T07:54:28.949Z,8.59
2023-01-12T07:55:28.941Z,8.63
2023-01-12T07:56:29.163Z,8.68
2023-01-12T07:57:28.891Z,8.68
2023-01-12T07:58:28.920Z,8.66
2023-01-12T07:59:28.863Z,8.68
2023-01-12T08:01:45.293Z,8.71
2023-01-12T08:02:46.243Z,8.71
2023-01-12T08:03:46.261Z,8.71
2023-01-12T08:04:46.483Z,8.71
2023-01-12T08:05:46.244Z,8.75
2023-01-12T08:06:46.233Z,8.78
2023-01-12T08:07:46.168Z,8.78
2023-01-12T08:08:46.189Z,8.84
2023-01-12T08:09:46.177Z,8.86
2023-01-12T08:10:46.195Z,8.87
2023-01-12T08:11:46.969Z,8.92
2023-01-12T08:12:47.164Z,8.90
2023-01-12T08:13:46.214Z,8.93
2023-01-12T08:14:46.116Z,8.95
2023-01-12T08:15:46.226Z,8.96
2023-01-12T08:16:46.088Z,8.97
2023-01-12T08:17:46.085Z,9.00
2023-01-12T08:18:46.082Z,9.02
2023-01-12T08:19:46.070Z,8.97
2023-01-12T08:20:46.043Z,8.97
2023-01-12T08:21:46.158Z,8.99
2023-01-12T08:22:46.282Z,8.99
2023-01-12T08:23:46.032Z,9.02
2023-01-12T08:24:46.010Z,9.11
2023-01-12T08:25:47.949Z,9.13
2023-01-12T08:26:52.970Z,9.13
2023-01-12T08:27:45.953Z,9.12
2023-01-12T08:28:45.981Z,9.16
2023-01-12T08:29:45.979Z,9.18
2023-01-12T08:30:45.933Z,9.21
2023-01-12T08:31:45.910Z,9.27
2023-01-12T08:32:46.910Z,9.47
2023-01-12T08:33:45.924Z,9.42
2023-01-12T08:34:45.893Z,9.42
2023-01-12T08:35:45.886Z,9.42
2023-01-12T08:36:45.872Z,9.40
2023-01-12T08:37:45.836Z,9.37
2023-01-12T08:38:45.826Z,9.39
2023-01-12T08:39:45.994Z,9.37
2023-01-12T08:40:45.883Z,9.47
2023-01-12T08:41:45.811Z,9.54
2023-01-12T08:42:45.830Z,9.67
2023-01-12T08:43:45.785Z,9.64
2023-01-12T08:44:45.796Z,9.66
2023-01-12T08:45:45.762Z,9.70
2023-01-12T08:46:45.777Z,9.72
2023-01-12T08:47:45.744Z,9.74
2023-01-12T08:48:45.741Z,9.84
2023-01-12T08:49:45.737Z,9.88
2023-01-12T08:50:45.746Z,9.87
2023-01-12T08:51:45.690Z,9.88
2023-01-12T08:52:46.113Z,9.88
2023-01-12T08:53:45.690Z,9.92
2023-01-12T08:54:45.711Z,9.92
2023-01-12T08:55:45.677Z,9.90
2023-01-12T08:56:45.642Z,9.92
2023-01-12T08:57:45.709Z,9.99
2023-01-12T08:58:45.627Z,10.00
2023-01-12T08:59:45.607Z,10.03
2023-01-12T09:00:45.655Z,10.05
2023-01-12T09:01:45.708Z,10.12
2023-01-12T09:02:45.673Z,10.12
2023-01-12T09:03:46.443Z,10.15
2023-01-12T09:04:45.584Z,10.20
2023-01-12T09:05:45.584Z,10.23
2023-01-12T09:06:45.564Z,10.27
2023-01-12T09:07:45.544Z,10.28
2023-01-12T09:08:45.534Z,10.33
2023-01-12T09:09:45.518Z,10.39
2023-01-12T09:10:45.525Z,10.41
2023-01-12T09:11:45.708Z,10.42
2023-01-12T09:12:45.463Z,10.45
2023-01-12T09:13:45.447Z,10.46
2023-01-12T09:14:45.486Z,10.51
2023-01-12T09:16:01.241Z,10.49
2023-01-12T09:16:45.554Z,10.51
2023-01-12T09:17:45.399Z,10.48
2023-01-12T09:18:45.432Z,10.49
2023-01-12T09:19:45.377Z,10.46
2023-01-12T09:20:45.392Z,10.46
2023-01-12T09:21:45.355Z,10.46
2023-01-12T09:22:45.401Z,10.48
2023-01-12T09:23:45.382Z,10.51
2023-01-12T09:24:46.436Z,10.53
2023-01-12T09:25:45.325Z,10.62
2023-01-12T09:26:45.589Z,10.67
2023-01-12T09:27:48.616Z,10.69
2023-01-12T10:42:39.229Z,10.24
2023-01-12T10:43:40.256Z,10.24
2023-01-12T10:44:40.135Z,10.27
2023-01-12T10:45:40.182Z,10.27
2023-01-12T10:46:40.113Z,10.25
2023-01-12T10:47:40.152Z,10.24
2023-01-12T10:48:40.127Z,10.21
2023-01-12T10:49:40.080Z,10.20
2023-01-12T10:50:40.139Z,10.18
2023-01-12T10:51:40.055Z,10.20
2023-01-12T10:52:40.041Z,10.20
2023-01-12T10:53:40.039Z,10.21
2023-01-12T10:54:40.010Z,10.20
2023-01-12T10:55:40.069Z,10.20
2023-01-12T10:56:39.995Z,10.23
2023-01-12T10:57:40.028Z,10.20
2023-01-12T10:58:40.071Z,10.18
2023-01-12T10:59:39.960Z,10.15
2023-01-12T11:00:39.985Z,10.13
2023-01-12T11:01:40.104Z,10.10
2023-01-12T11:02:40.016Z,10.10
2023-01-12T11:03:39.925Z,10.12
2023-01-12T11:04:39.898Z,10.10
2023-01-12T11:05:39.986Z,10.06
2023-01-12T11:06:40.038Z,10.03
2023-01-12T11:07:39.878Z,9.99
2023-01-12T11:08:40.105Z,9.95
2023-01-12T11:09:39.846Z,10.00
2023-01-12T11:10:39.840Z,9.99
2023-01-12T11:11:39.870Z,9.99
2023-01-12T11:12:39.838Z,9.99
2023-01-12T11:13:39.823Z,9.97
2023-01-12T11:14:39.795Z,9.95
2023-01-12T11:15:39.785Z,9.95
2023-01-12T11:16:39.811Z,9.91
2023-01-12T11:17:39.820Z,9.92
2023-01-12T11:18:39.762Z,9.91
2023-01-12T11:19:41.846Z,9.92
2023-01-12T11:20:39.752Z,9.92
2023-01-12T11:21:40.001Z,9.92
2023-01-12T11:22:39.760Z,9.94
2023-01-12T11:23:39.744Z,9.95
2023-01-12T11:24:39.679Z,9.94
2023-01-12T11:25:39.675Z,9.97
2023-01-12T11:26:39.706Z,10.02
2023-01-12T11:27:39.666Z,10.09
2023-01-12T11:28:39.618Z,10.18
2023-01-12T11:29:39.673Z,10.25
2023-01-12T11:30:39.606Z,10.30
2023-01-12T11:31:39.692Z,10.34
2023-01-12T11:32:39.685Z,10.39
2023-01-12T11:33:39.599Z,10.36
2023-01-12T11:34:39.852Z,10.31
2023-01-12T11:35:39.853Z,10.28
2023-01-12T11:36:39.583Z,10.25
2023-01-12T11:37:39.581Z,10.25
2023-01-12T11:38:39.514Z,10.15
2023-01-12T11:39:39.514Z,10.07
2023-01-12T11:40:39.499Z,10.03
2023-01-12T11:41:39.503Z,9.99
2023-01-12T11:42:39.465Z,10.00
2023-01-12T11:43:39.530Z,9.99
2023-01-12T11:44:39.433Z,9.94
2023-01-12T11:45:39.500Z,9.90
2023-01-12T11:46:39.427Z,9.85
2023-01-12T11:47:41.726Z,9.90
2023-01-12T11:48:40.372Z,9.94
2023-01-12T11:49:39.402Z,9.97
2023-01-12T11:50:40.212Z,9.97
2023-01-12T11:51:39.463Z,9.92
2023-01-12T11:52:39.351Z,9.85
2023-01-12T11:53:41.368Z,9.77
2023-01-12T11:54:39.350Z,9.72
2023-01-12T11:55:39.380Z,9.66
2023-01-12T11:56:39.326Z,9.62
2023-01-12T11:57:39.895Z,9.59
2023-01-12T11:58:39.338Z,9.62
2023-01-12T11:59:41.580Z,9.62
2023-01-12T12:00:39.272Z,9.62
2023-01-12T12:01:39.294Z,9.63
2023-01-12T12:02:39.294Z,9.62
2023-01-12T12:03:39.307Z,9.63
2023-01-12T12:04:39.226Z,9.63
2023-01-12T12:05:41.287Z,9.62
2023-01-12T12:06:39.286Z,9.62
2023-01-12T12:07:39.260Z,9.59
2023-01-12T12:08:39.167Z,9.58
2023-01-12T12:09:39.291Z,9.54
2023-01-12T12:10:39.836Z,9.52
2023-01-12T12:11:41.732Z,9.49
2023-01-12T12:12:39.129Z,9.47
2023-01-12T12:13:39.183Z,9.45
2023-01-12T12:14:39.112Z,9.44
2023-01-12T12:15:39.126Z,9.40
2023-01-12T12:16:39.236Z,9.39
2023-01-12T12:17:41.782Z,9.40
2023-01-12T12:18:39.069Z,9.40
2023-01-12T12:19:39.039Z,9.44
2023-01-12T12:20:39.036Z,9.45
2023-01-12T12:21:39.099Z,9.48
2023-01-12T12:22:39.024Z,9.49
2023-01-12T12:23:41.284Z,9.55
2023-01-12T12:24:39.038Z,9.55
2023-01-12T12:25:39.009Z,9.56
2023-01-12T12:26:38.962Z,9.58
2023-01-12T12:27:38.970Z,9.58
2023-01-12T12:28:39.007Z,9.59
2023-01-12T12:29:40.966Z,9.59
2023-01-12T12:30:38.989Z,9.59
2023-01-12T12:31:38.927Z,9.58
2023-01-12T12:32:38.894Z,9.58
2023-01-12T12:33:38.902Z,9.62
2023-01-12T12:34:38.895Z,9.58
2023-01-12T12:35:40.629Z,9.58
2023-01-12T12:36:38.854Z,9.59
2023-01-12T12:37:38.859Z,9.59
2023-01-12T12:38:38.839Z,9.63
2023-01-12T12:45:40.881Z,9.76
2023-01-12T12:46:41.792Z,9.76
2023-01-12T12:47:42.304Z,9.77
2023-01-12T12:48:41.735Z,9.76
2023-01-12T12:49:41.755Z,9.82
2023-01-12T12:50:41.748Z,9.85
2023-01-12T12:51:41.798Z,9.90
2023-01-12T12:52:41.703Z,9.95
2023-01-12T12:53:42.157Z,9.97
2023-01-12T12:54:41.686Z,10.05
2023-01-12T12:55:41.734Z,10.03
2023-01-12T12:56:41.667Z,10.05
2023-01-12T12:57:41.665Z,10.05
2023-01-12T12:58:41.635Z,10.05
2023-01-12T12:59:41.692Z,10.02
2023-01-12T13:00:41.660Z,9.99
2023-01-12T13:01:41.886Z,9.97
2023-01-12T13:02:41.621Z,9.97
2023-01-12T13:03:41.591Z,9.97
2023-01-12T13:04:41.611Z,9.95
2023-01-12T13:05:41.580Z,9.92
2023-01-12T13:06:41.548Z,9.94
2023-01-12T13:07:42.497Z,9.92
2023-01-12T13:08:41.870Z,9.94
2023-01-12T13:09:41.683Z,9.94
2023-01-12T13:10:41.539Z,9.92
2023-01-12T13:11:42.102Z,9.95
2023-01-12T13:12:41.539Z,9.99
2023-01-12T13:13:41.542Z,10.02
2023-01-12T13:14:41.478Z,10.06
2023-01-12T13:15:41.473Z,10.06
2023-01-12T13:16:41.430Z,10.05
2023-01-12T13:17:41.464Z,10.02
2023-01-12T13:18:41.478Z,10.02
2023-01-12T13:19:41.513Z,9.94
2023-01-12T13:20:41.403Z,9.85
2023-01-12T13:21:41.387Z,9.73
2023-01-12T13:22:41.388Z,9.64
2023-01-12T13:23:41.422Z,9.55
2023-01-12T13:24:41.357Z,9.48
2023-01-12T13:25:41.355Z,9.42
2023-01-12T13:26:41.437Z,9.39
2023-01-12T14:23:06.203Z,9.55
2023-01-12T14:24:07.149Z,9.56
2023-01-12T14:25:07.151Z,9.56
2023-01-12T14:26:07.139Z,9.59
2023-01-12T14:27:07.141Z,9.59
2023-01-12T14:28:07.140Z,9.63
2023-01-12T14:29:07.137Z,9.66
2023-01-12T14:30:07.173Z,9.67
2023-01-12T14:31:15.256Z,9.69
2023-01-12T14:33:34.408Z,9.70
2023-01-12T14:34:35.391Z,9.69
2023-01-12T14:35:35.355Z,9.67
2023-01-12T14:36:35.396Z,9.66
2023-01-12T14:37:35.339Z,9.64
2023-01-12T14:38:35.333Z,9.63
2023-01-12T14:39:35.348Z,9.59
2023-01-12T14:40:35.345Z,9.56
2023-01-12T14:41:35.306Z,9.52
2023-01-12T14:42:35.312Z,9.49
2023-01-12T14:43:35.272Z,9.47
2023-01-12T14:44:35.528Z,9.44
2023-01-12T14:45:35.290Z,9.42
2023-01-12T14:46:35.464Z,9.39
2023-01-12T14:47:35.302Z,9.37
2023-01-12T14:48:35.249Z,9.36
2023-01-12T14:49:35.215Z,9.36
2023-01-12T14:50:35.218Z,9.37
2023-01-12T14:51:36.131Z,9.39
2023-01-12T14:52:35.186Z,9.36
2023-01-12T14:53:35.198Z,9.39
2023-01-12T14:54:35.166Z,9.42
2023-01-12T14:55:35.169Z,9.49
2023-01-12T14:56:35.131Z,9.58
2023-01-12T14:57:35.136Z,9.63
2023-01-12T14:58:35.113Z,9.67
2023-01-12T14:59:35.183Z,9.70
2023-01-12T15:00:35.132Z,9.72
2023-01-12T15:01:35.251Z,9.72
2023-01-12T15:02:35.068Z,9.74
2023-01-12T15:03:43.152Z,9.76
2023-01-12T15:04:35.091Z,9.76
2023-01-12T15:05:35.058Z,9.77
2023-01-12T15:06:35.041Z,9.77
2023-01-12T15:07:35.039Z,9.76
2023-01-12T15:08:35.023Z,9.76
2023-01-12T15:09:34.981Z,9.76
2023-01-12T15:10:35.073Z,9.74
2023-01-12T15:11:34.979Z,9.76
2023-01-12T15:12:34.957Z,9.74
2023-01-12T15:13:34.943Z,9.73
2023-01-12T15:14:34.965Z,9.72
2023-01-12T15:15:34.925Z,9.72
2023-01-12T15:16:34.966Z,9.73
2023-01-12T15:17:34.882Z,9.74
2023-01-12T15:18:34.889Z,9.72
2023-01-12T15:19:34.897Z,9.69
2023-01-12T15:20:34.901Z,9.70
2023-01-12T15:21:34.840Z,9.73
2023-01-12T15:22:36.653Z,9.77
2023-01-12T16:10:58.600Z,10.03
2023-01-12T16:42:03.385Z,9.95
2023-01-12T16:43:04.339Z,9.92
2023-01-12T16:44:04.367Z,9.94
2023-01-12T16:45:04.364Z,9.94
2023-01-12T16:46:04.357Z,9.95
2023-01-12T16:47:04.329Z,9.95
2023-01-12T16:48:04.278Z,9.97
2023-01-12T16:49:04.275Z,9.97
2023-01-12T16:50:04.274Z,9.95
2023-01-12T16:51:04.256Z,9.95